Time;durP1;ratioP1;P1;durP2;ratioP2;P2;SDS_P1;SDS_P2;PMS_P1;PMS_P2;Temp;Humidity;BMP_temperature;BMP_pressure;BME280_temperature;BME280_humidity;BME280_pressure;Samples;Min_cycle;Max_cycle;Signal;HPM_P1;HPM_P2
2021/04/28 00:01:31;;;;;;;14.35;13.30;;;7.10;93.90;;;;;;5057324;28;20505;-71
2021/04/28 00:03:58;;;;;;;14.38;13.02;;;7.00;93.80;;;;;;5069691;28;20515;-71
2021/04/28 00:06:24;;;;;;;14.73;13.35;;;7.00;93.60;;;;;;5068225;28;20517;-74
2021/04/28 00:08:50;;;;;;;13.65;12.60;;;7.10;93.60;;;;;;5076062;28;20231;-72
2021/04/28 00:11:17;;;;;;;13.60;12.38;;;7.10;93.50;;;;;;5070667;28;20135;-72
2021/04/28 00:13:43;;;;;;;13.80;12.82;;;7.10;93.40;;;;;;5068897;28;20603;-71
2021/04/28 00:16:10;;;;;;;14.02;12.63;;;7.10;93.30;;;;;;5068546;28;20478;-71
2021/04/28 00:18:36;;;;;;;14.27;13.18;;;7.10;93.50;;;;;;5057602;28;20131;-71
2021/04/28 00:21:03;;;;;;;14.05;12.82;;;7.00;93.50;;;;;;5048266;28;20057;-72
2021/04/28 00:23:29;;;;;;;14.75;13.38;;;7.00;93.60;;;;;;5049306;28;20413;-73
2021/04/28 00:25:56;;;;;;;14.57;13.48;;;7.00;93.50;;;;;;5051289;28;20056;-72
2021/04/28 00:28:22;;;;;;;14.18;12.63;;;7.00;93.40;;;;;;5067719;28;20057;-72
2021/04/28 00:30:48;;;;;;;14.50;13.15;;;7.00;93.70;;;;;;5068145;28;20076;-71
2021/04/28 00:33:14;;;;;;;13.77;12.57;;;7.10;93.20;;;;;;5045768;28;20044;-71
2021/04/28 00:35:41;;;;;;;14.23;13.02;;;7.00;93.00;;;;;;5060546;28;20087;-71
2021/04/28 00:38:07;;;;;;;14.57;13.20;;;7.10;93.50;;;;;;5065569;28;20056;-72
2021/04/28 00:40:37;;;;;;;14.60;13.48;;;7.00;93.00;;;;;;5088398;28;20059;-71
2021/04/28 00:43:03;;;;;;;13.20;12.10;;;7.00;93.20;;;;;;5076233;28;20110;-72
2021/04/28 00:45:33;;;;;;;14.50;13.23;;;6.90;93.00;;;;;;5066905;28;20044;-72
2021/04/28 00:48:01;;;;;;;14.00;12.85;;;6.90;93.40;;;;;;5069154;28;20055;-72
2021/04/28 00:50:34;;;;;;;13.85;12.65;;;6.90;93.30;;;;;;5068232;28;20515;-72
2021/04/28 00:53:02;;;;;;;13.50;12.57;;;6.90;93.60;;;;;;5066638;28;20048;-71
2021/04/28 00:55:29;;;;;;;13.93;12.93;;;7.00;92.90;;;;;;5061342;28;20061;-72
2021/04/28 00:57:55;;;;;;;14.77;13.30;;;6.90;93.20;;;;;;5049940;28;20063;-71
2021/04/28 01:00:23;;;;;;;14.60;13.23;;;6.80;93.90;;;;;;5066650;28;20057;-71
2021/04/28 01:02:49;;;;;;;14.35;13.07;;;6.70;94.90;;;;;;5061234;28;20341;-71
2021/04/28 01:05:19;;;;;;;14.60;13.45;;;6.60;94.70;;;;;;5068658;28;20081;-72
2021/04/28 01:07:48;;;;;;;14.13;13.07;;;6.50;95.40;;;;;;5069555;28;20098;-71
2021/04/28 01:10:25;;;;;;;13.77;12.68;;;6.40;95.30;;;;;;5071550;28;20044;-72
2021/04/28 01:12:53;;;;;;;13.80;12.80;;;6.40;96.70;;;;;;5065165;28;20063;-71
2021/04/28 01:15:23;;;;;;;13.90;12.52;;;6.40;95.40;;;;;;5047220;28;20128;-72
2021/04/28 01:17:57;;;;;;;15.05;13.73;;;6.30;96.30;;;;;;5030529;28;20060;-72
2021/04/28 01:20:25;;;;;;;14.27;12.85;;;6.30;96.80;;;;;;5046982;28;20071;-71
2021/04/28 01:22:53;;;;;;;14.10;13.00;;;6.00;97.50;;;;;;5048766;28;20103;-71
2021/04/28 01:25:22;;;;;;;14.05;12.93;;;5.90;97.60;;;;;;5047673;28;20051;-71
2021/04/28 01:28:17;;;;;;;14.25;13.05;;;5.90;96.80;;;;;;5050343;28;20076;-72
2021/04/28 01:30:58;;;;;;;13.68;12.57;;;5.90;97.50;;;;;;5065628;28;20053;-72
2021/04/28 01:33:44;;;;;;;13.95;12.82;;;5.90;96.80;;;;;;5065784;28;20440;-72
2021/04/28 01:36:18;;;;;;;14.68;13.57;;;5.90;96.50;;;;;;5067057;28;20577;-71
2021/04/28 01:38:49;;;;;;;13.40;12.35;;;6.00;96.30;;;;;;5070201;28;20063;-71
2021/04/28 01:41:17;;;;;;;14.65;13.23;;;6.10;96.10;;;;;;5087285;28;20060;-71
2021/04/28 01:43:44;;;;;;;13.98;12.88;;;6.10;96.00;;;;;;5060004;28;20056;-72
2021/04/28 01:46:12;;;;;;;13.50;12.60;;;6.00;96.10;;;;;;5047666;28;20057;-72
2021/04/28 01:48:41;;;;;;;13.93;12.70;;;6.10;96.30;;;;;;5046645;28;20055;-71
2021/04/28 01:51:09;;;;;;;14.05;12.88;;;6.10;96.10;;;;;;5030376;28;20056;-72
2021/04/28 01:53:38;;;;;;;13.88;12.65;;;6.00;96.80;;;;;;5054466;28;20505;-71
2021/04/28 01:56:04;;;;;;;14.65;13.40;;;5.90;97.30;;;;;;5065436;28;20083;-71
2021/04/28 01:58:44;;;;;;;14.68;13.38;;;5.90;96.90;;;;;;5054791;28;20067;-72
2021/04/28 02:01:22;;;;;;;13.63;12.30;;;5.90;97.10;;;;;;5058026;28;20523;-72
2021/04/28 02:03:49;;;;;;;13.80;12.80;;;5.90;97.20;;;;;;5073819;28;20441;-72
2021/04/28 02:06:16;;;;;;;13.70;12.73;;;5.90;97.70;;;;;;5066218;28;20062;-72
2021/04/28 02:08:43;;;;;;;14.73;13.35;;;5.80;96.70;;;;;;5068880;28;20087;-71
2021/04/28 02:11:11;;;;;;;13.43;12.35;;;5.90;96.80;;;;;;5082233;28;20140;-72
2021/04/28 02:13:46;;;;;;;14.40;13.18;;;5.90;96.20;;;;;;5066719;28;20040;-72
2021/04/28 02:16:23;;;;;;;14.05;12.65;;;5.90;96.30;;;;;;5049915;28;20441;-71
2021/04/28 02:18:50;;;;;;;14.07;13.05;;;6.00;96.90;;;;;;5048015;28;20133;-71
2021/04/28 02:21:17;;;;;;;14.23;13.13;;;5.80;96.70;;;;;;5067137;28;20518;-72
2021/04/28 02:23:58;;;;;;;14.05;13.13;;;5.80;97.10;;;;;;5064581;28;20070;-71
2021/04/28 02:26:24;;;;;;;14.55;13.38;;;5.80;96.90;;;;;;5066591;28;20098;-71
2021/04/28 02:28:51;;;;;;;13.55;12.45;;;5.70;97.50;;;;;;5065062;28;20044;-71
2021/04/28 02:31:17;;;;;;;14.00;12.75;;;5.60;97.40;;;;;;5065694;28;20167;-71
2021/04/28 02:33:50;;;;;;;13.80;12.57;;;5.60;98.40;;;;;;5064734;28;20053;-71
2021/04/28 02:36:41;;;;;;;15.65;13.70;;;5.60;97.30;;;;;;5054022;28;20041;-71
2021/04/28 02:39:41;;;;;;;13.27;12.30;;;5.70;97.80;;;;;;5078402;28;20385;-71
2021/04/28 02:42:08;;;;;;;13.43;12.40;;;5.70;97.30;;;;;;5080775;28;20532;-71
2021/04/28 02:44:37;;;;;;;13.65;12.65;;;5.70;97.20;;;;;;5066531;28;20102;-72
2021/04/28 02:47:08;;;;;;;14.32;13.23;;;5.50;98.40;;;;;;5066206;28;20137;-71
2021/04/28 02:49:39;;;;;;;14.60;13.48;;;5.40;98.70;;;;;;5065439;28;20045;-72
2021/04/28 02:52:23;;;;;;;14.75;13.40;;;5.50;97.90;;;;;;5064811;28;20107;-72
2021/04/28 02:54:50;;;;;;;14.57;13.27;;;5.50;98.60;;;;;;5051239;28;20048;-71
2021/04/28 02:57:21;;;;;;;14.05;13.00;;;5.60;97.90;;;;;;5054588;28;20114;-72
2021/04/28 02:59:51;;;;;;;13.82;12.82;;;5.40;98.80;;;;;;5066094;28;20139;-72
2021/04/28 03:02:19;;;;;;;13.57;12.57;;;5.30;99.70;;;;;;5066483;28;20170;-72
2021/04/28 03:04:50;;;;;;;14.52;13.07;;;5.40;99.70;;;;;;5047893;28;20060;-71
2021/04/28 03:07:27;;;;;;;13.70;12.73;;;5.40;99.90;;;;;;5065929;28;20458;-72
2021/04/28 03:09:54;;;;;;;14.93;13.55;;;5.20;99.70;;;;;;5072637;28;20659;-71
2021/04/28 03:12:23;;;;;;;13.60;12.70;;;5.20;99.60;;;;;;5064813;28;20048;-72
2021/04/28 03:14:53;;;;;;;15.45;14.25;;;5.10;99.60;;;;;;5062953;28;20555;-72
2021/04/28 03:17:21;;;;;;;13.38;12.48;;;5.20;99.50;;;;;;5065448;28;20102;-71
2021/04/28 03:19:51;;;;;;;14.27;12.98;;;5.30;99.30;;;;;;5064328;28;20054;-71
2021/04/28 03:22:19;;;;;;;13.55;12.00;;;5.30;99.00;;;;;;5066389;28;20505;-71
2021/04/28 03:24:47;;;;;;;14.07;12.98;;;5.20;99.60;;;;;;5053328;28;20450;-71
2021/04/28 03:27:15;;;;;;;13.27;12.25;;;5.20;99.20;;;;;;5044553;28;20064;-71
2021/04/28 03:29:53;;;;;;;14.57;13.40;;;5.10;99.90;;;;;;5065038;28;20049;-71
2021/04/28 03:32:20;;;;;;;14.13;12.93;;;5.10;99.90;;;;;;5069866;28;20060;-71
2021/04/28 03:34:53;;;;;;;14.90;13.57;;;5.00;99.90;;;;;;5068421;28;20215;-71
2021/04/28 03:37:20;;;;;;;14.48;13.35;;;4.90;99.90;;;;;;5069792;28;20068;-71
2021/04/28 03:39:48;;;;;;;13.75;12.80;;;5.00;99.90;;;;;;5050823;28;20053;-71
2021/04/28 03:42:15;;;;;;;13.85;12.93;;;5.00;99.90;;;;;;5067289;28;20059;-71
2021/04/28 03:44:42;;;;;;;15.18;13.77;;;5.20;99.90;;;;;;5050713;28;20101;-71
2021/04/28 03:47:10;;;;;;;15.15;13.80;;;5.30;99.90;;;;;;5068400;28;20056;-71
2021/04/28 03:49:41;;;;;;;14.63;13.52;;;5.30;99.90;;;;;;5051945;28;20049;-71
2021/04/28 03:52:10;;;;;;;14.85;13.55;;;5.40;99.90;;;;;;5065258;28;20580;-71
2021/04/28 03:54:55;;;;;;;15.70;14.30;;;5.30;99.90;;;;;;5054044;28;20048;-71
2021/04/28 03:57:21;;;;;;;16.75;15.23;;;5.20;99.90;;;;;;5046917;28;20048;-71
2021/04/28 03:59:47;;;;;;;15.27;14.07;;;5.10;99.90;;;;;;5066237;28;20059;-71
2021/04/28 04:02:14;;;;;;;15.85;14.43;;;5.20;99.90;;;;;;5050368;28;20053;-71
2021/04/28 04:05:07;;;;;;;16.75;15.25;;;4.90;99.90;;;;;;5048781;28;20071;-71
2021/04/28 04:07:53;;;;;;;19.42;15.55;;;4.90;99.90;;;;;;5072600;28;20044;-71
2021/04/28 04:10:29;;;;;;;17.23;15.90;;;4.90;99.90;;;;;;5053226;28;20049;-71
2021/04/28 04:12:56;;;;;;;16.98;15.77;;;4.90;99.90;;;;;;5066879;28;20532;-71
2021/04/28 04:15:22;;;;;;;15.95;14.82;;;4.90;99.90;;;;;;5067775;28;20049;-71
2021/04/28 04:17:50;;;;;;;17.42;15.77;;;4.90;99.90;;;;;;5067764;28;20712;-71
2021/04/28 04:20:26;;;;;;;16.77;15.48;;;4.90;99.90;;;;;;5067281;28;20164;-70
2021/04/28 04:23:04;;;;;;;16.90;15.30;;;4.90;99.90;;;;;;5067098;28;20087;-71
2021/04/28 04:25:47;;;;;;;16.42;15.02;;;5.00;99.90;;;;;;5056011;28;20052;-70
2021/04/28 04:28:32;;;;;;;16.80;15.50;;;5.10;99.90;;;;;;5062917;28;20086;-71
2021/04/28 04:31:03;;;;;;;17.23;15.68;;;5.30;99.90;;;;;;5075957;28;20053;-71
2021/04/28 04:33:48;;;;;;;17.02;15.63;;;5.50;99.90;;;;;;5062139;28;20308;-71
2021/04/28 04:36:33;;;;;;;15.88;14.60;;;5.60;99.90;;;;;;5070968;28;20048;-71
2021/04/28 04:39:18;;;;;;;15.48;14.40;;;5.80;99.90;;;;;;5080481;28;20044;-72
2021/04/28 04:42:12;;;;;;;15.85;14.30;;;5.90;99.90;;;;;;5088608;28;20157;-72
2021/04/28 04:44:45;;;;;;;15.45;14.25;;;6.00;99.90;;;;;;5072823;28;20159;-72
2021/04/28 04:47:13;;;;;;;16.38;14.88;;;6.00;99.90;;;;;;5068590;28;20060;-72
2021/04/28 04:49:42;;;;;;;15.07;13.75;;;6.10;99.90;;;;;;5069066;28;20053;-72
2021/04/28 04:52:08;;;;;;;16.08;14.55;;;6.10;99.90;;;;;;5068211;28;20051;-71
2021/04/28 04:54:35;;;;;;;15.88;14.23;;;6.10;99.90;;;;;;5065602;28;20056;-72
2021/04/28 04:57:02;;;;;;;15.82;14.30;;;6.20;99.90;;;;;;5066981;28;20053;-73
2021/04/28 04:59:28;;;;;;;15.57;14.45;;;6.20;99.90;;;;;;5074272;28;20413;-71
2021/04/28 05:01:55;;;;;;;17.00;15.50;;;6.30;99.90;;;;;;5069142;28;20052;-71
2021/04/28 05:04:22;;;;;;;17.50;15.85;;;6.30;99.90;;;;;;5068415;28;20112;-71
2021/04/28 05:06:48;;;;;;;16.70;15.15;;;6.40;99.90;;;;;;5071564;28;20055;-71
2021/04/28 05:09:15;;;;;;;16.63;15.23;;;6.40;99.90;;;;;;5059753;28;20044;-71
2021/04/28 05:11:41;;;;;;;16.60;15.25;;;6.40;99.90;;;;;;5070208;28;20052;-70
2021/04/28 05:14:08;;;;;;;15.73;14.63;;;6.50;99.90;;;;;;5068183;28;20048;-71
2021/04/28 05:16:34;;;;;;;16.45;15.00;;;6.60;99.90;;;;;;5067095;28;20579;-71
2021/04/28 05:19:01;;;;;;;16.15;14.68;;;6.60;99.90;;;;;;5067414;28;20057;-71
2021/04/28 05:21:27;;;;;;;16.23;14.77;;;6.70;99.90;;;;;;5064346;28;20225;-71
2021/04/28 05:23:54;;;;;;;17.00;15.20;;;6.80;99.90;;;;;;5066258;28;20105;-72
2021/04/28 05:26:42;;;;;;;17.45;16.02;;;6.90;99.90;;;;;;5035413;28;20052;-71
2021/04/28 05:29:08;;;;;;;16.70;15.13;;;6.80;99.90;;;;;;5073420;28;20048;-71
2021/04/28 05:31:34;;;;;;;16.38;15.15;;;6.90;99.90;;;;;;5068504;28;20420;-71
2021/04/28 05:34:00;;;;;;;16.73;15.50;;;7.00;99.90;;;;;;5066553;28;20052;-71
2021/04/28 05:36:27;;;;;;;17.00;15.70;;;7.10;99.90;;;;;;5064737;28;20151;-71
2021/04/28 05:38:58;;;;;;;18.27;16.55;;;7.20;98.70;;;;;;5069360;28;20084;-71
2021/04/28 05:41:25;;;;;;;17.08;15.77;;;7.20;99.60;;;;;;5063815;28;20059;-71
2021/04/28 05:43:51;;;;;;;19.17;17.48;;;7.30;99.40;;;;;;5067173;28;20059;-71
2021/04/28 05:46:17;;;;;;;17.27;16.08;;;7.40;99.10;;;;;;5066891;28;20155;-71
2021/04/28 05:48:44;;;;;;;17.38;16.05;;;7.30;99.10;;;;;;5065943;28;20122;-71
2021/04/28 05:51:10;;;;;;;17.40;15.98;;;7.30;99.30;;;;;;5065478;28;20075;-71
2021/04/28 05:53:36;;;;;;;17.13;15.82;;;7.30;99.30;;;;;;5064558;28;20669;-71
2021/04/28 05:56:05;;;;;;;17.70;16.35;;;7.30;99.30;;;;;;5065891;28;20044;-71
2021/04/28 05:58:32;;;;;;;17.60;16.17;;;7.30;99.60;;;;;;5053479;28;20420;-71
2021/04/28 06:01:00;;;;;;;17.20;15.68;;;7.40;99.20;;;;;;5047996;28;20139;-71
2021/04/28 06:03:26;;;;;;;18.27;16.67;;;7.30;99.20;;;;;;5066050;28;20137;-71
2021/04/28 06:05:53;;;;;;;18.40;16.83;;;7.20;99.10;;;;;;5065127;28;20051;-71
2021/04/28 06:08:19;;;;;;;18.02;16.45;;;7.20;99.60;;;;;;5072640;28;20048;-71
2021/04/28 06:10:45;;;;;;;17.95;16.50;;;7.20;99.20;;;;;;5062993;28;20048;-71
2021/04/28 06:13:12;;;;;;;18.08;16.77;;;7.30;99.40;;;;;;5067438;28;20082;-72
2021/04/28 06:15:38;;;;;;;18.35;16.85;;;7.30;99.20;;;;;;5065637;28;20059;-71
2021/04/28 06:18:06;;;;;;;17.60;16.33;;;7.30;99.40;;;;;;5056751;28;20084;-71
2021/04/28 06:20:34;;;;;;;18.23;16.67;;;7.30;99.40;;;;;;5066217;28;20386;-71
2021/04/28 06:23:02;;;;;;;17.83;16.20;;;7.50;99.70;;;;;;5065287;28;20056;-71
2021/04/28 06:25:29;;;;;;;18.15;16.55;;;7.80;99.10;;;;;;5065703;28;20056;-71
2021/04/28 06:27:55;;;;;;;18.90;17.13;;;7.90;98.80;;;;;;5071890;28;20489;-71
2021/04/28 06:30:22;;;;;;;17.25;15.85;;;8.20;98.00;;;;;;5074117;28;20052;-71
2021/04/28 06:32:49;;;;;;;16.60;15.38;;;8.60;96.90;;;;;;5065869;28;20125;-71
2021/04/28 06:35:16;;;;;;;18.50;16.50;;;8.70;95.90;;;;;;5063387;28;20049;-71
2021/04/28 06:37:42;;;;;;;17.80;16.38;;;8.90;95.60;;;;;;5062318;28;20488;-71
2021/04/28 06:40:10;;;;;;;17.52;16.20;;;8.90;94.70;;;;;;5066808;28;20084;-71
2021/04/28 06:42:37;;;;;;;18.08;16.58;;;8.80;95.10;;;;;;5065838;28;20049;-71
2021/04/28 06:45:05;;;;;;;17.02;15.68;;;9.10;95.40;;;;;;5066410;28;20131;-72
2021/04/28 06:47:32;;;;;;;18.38;16.95;;;9.30;94.20;;;;;;5066700;28;20423;-72
2021/04/28 06:49:58;;;;;;;18.45;16.95;;;9.30;94.30;;;;;;5065046;28;20529;-71
2021/04/28 06:52:24;;;;;;;18.40;16.90;;;9.60;93.80;;;;;;5065908;28;20062;-71
2021/04/28 06:54:51;;;;;;;18.13;16.63;;;9.70;93.90;;;;;;5065547;28;20044;-71
2021/04/28 06:57:18;;;;;;;18.70;16.88;;;9.90;92.70;;;;;;5065233;28;20049;-71
2021/04/28 06:59:44;;;;;;;17.85;16.55;;;9.90;92.80;;;;;;5048372;28;20091;-72
2021/04/28 07:02:11;;;;;;;17.92;16.15;;;10.00;93.30;;;;;;5058551;28;20489;-71
2021/04/28 07:04:40;;;;;;;17.23;15.63;;;10.20;92.80;;;;;;5062312;28;20095;-71
2021/04/28 07:07:06;;;;;;;18.02;16.52;;;10.50;92.10;;;;;;5064113;28;20612;-71
2021/04/28 07:09:33;;;;;;;17.80;16.58;;;10.40;91.70;;;;;;5060934;28;20180;-72
2021/04/28 07:11:59;;;;;;;17.60;15.98;;;10.60;92.10;;;;;;5081352;28;20136;-72
2021/04/28 07:14:26;;;;;;;17.92;16.48;;;10.80;91.60;;;;;;5056374;28;20072;-71
2021/04/28 07:16:52;;;;;;;18.80;16.88;;;10.90;91.70;;;;;;5064421;28;20230;-71
2021/04/28 07:19:19;;;;;;;16.48;15.27;;;11.10;91.00;;;;;;5064732;28;20071;-73
2021/04/28 07:21:45;;;;;;;18.40;16.90;;;11.10;91.20;;;;;;5064654;28;20139;-71
2021/04/28 07:24:12;;;;;;;18.75;17.35;;;11.20;90.80;;;;;;5044562;28;20481;-71
2021/04/28 07:26:38;;;;;;;18.55;16.80;;;11.20;91.00;;;;;;5064970;28;20131;-70
2021/04/28 07:29:05;;;;;;;21.23;17.73;;;11.00;91.00;;;;;;5070175;28;20049;-71
2021/04/28 07:31:31;;;;;;;18.75;16.90;;;11.00;91.60;;;;;;5061534;28;20450;-71
2021/04/28 07:33:58;;;;;;;19.50;17.48;;;11.30;91.70;;;;;;5063764;28;20075;-71
2021/04/28 07:36:24;;;;;;;18.15;16.65;;;11.60;91.10;;;;;;5064514;28;20440;-69
2021/04/28 07:38:52;;;;;;;17.58;16.38;;;11.80;90.80;;;;;;5073795;28;20341;-73
2021/04/28 07:41:18;;;;;;;19.42;17.92;;;11.90;90.80;;;;;;5066048;28;20111;-74
2021/04/28 07:43:45;;;;;;;18.75;17.05;;;12.40;90.90;;;;;;5065367;28;20079;-75
2021/04/28 07:46:11;;;;;;;19.40;17.73;;;12.60;90.00;;;;;;5064675;28;20057;-73
2021/04/28 07:48:37;;;;;;;19.58;18.02;;;12.70;88.50;;;;;;5064498;28;20045;-73
2021/04/28 07:51:06;;;;;;;18.40;16.95;;;12.70;90.30;;;;;;5065277;28;20141;-73
2021/04/28 07:53:33;;;;;;;20.00;18.15;;;12.70;90.20;;;;;;5065489;28;20076;-73
2021/04/28 07:55:59;;;;;;;20.17;18.30;;;13.10;90.10;;;;;;5055816;28;20081;-74
2021/04/28 07:58:25;;;;;;;18.85;17.45;;;13.20;88.00;;;;;;5045421;28;20139;-73
2021/04/28 08:00:52;;;;;;;19.27;17.77;;;13.40;87.90;;;;;;5044250;28;20524;-74
2021/04/28 08:03:18;;;;;;;19.23;17.30;;;13.40;87.00;;;;;;5065558;28;20143;-74
2021/04/28 08:05:45;;;;;;;19.00;17.38;;;13.70;88.10;;;;;;5046358;28;20276;-74
2021/04/28 08:08:11;;;;;;;19.38;17.85;;;13.70;86.70;;;;;;5063163;28;20056;-74
2021/04/28 08:10:37;;;;;;;17.98;16.33;;;14.20;86.30;;;;;;5065120;28;20704;-74
2021/04/28 08:13:08;;;;;;;18.90;17.27;;;14.20;85.50;;;;;;5085108;28;20070;-74
2021/04/28 08:15:36;;;;;;;18.08;16.58;;;14.20;85.50;;;;;;5079246;28;20057;-74
2021/04/28 08:18:03;;;;;;;18.98;17.38;;;14.20;85.90;;;;;;5066367;28;20128;-74
2021/04/28 08:20:30;;;;;;;19.33;17.48;;;14.30;84.80;;;;;;5065610;28;20074;-74
2021/04/28 08:22:56;;;;;;;19.65;17.67;;;14.60;84.20;;;;;;5049047;28;20551;-74
2021/04/28 08:25:22;;;;;;;19.08;17.35;;;14.30;84.80;;;;;;5049946;28;20056;-74
2021/04/28 08:27:50;;;;;;;19.95;18.23;;;14.40;85.90;;;;;;5067452;28;20059;-74
2021/04/28 08:30:17;;;;;;;19.25;17.77;;;14.90;85.40;;;;;;5066856;28;20076;-74
2021/04/28 08:32:44;;;;;;;20.75;18.88;;;15.20;84.70;;;;;;5061373;28;20058;-74
2021/04/28 08:35:15;;;;;;;21.48;19.58;;;15.20;82.10;;;;;;5066248;28;20033;-74
2021/04/28 08:37:45;;;;;;;20.02;18.52;;;14.90;82.30;;;;;;5069621;28;20612;-74
2021/04/28 08:40:13;;;;;;;20.23;18.63;;;14.50;84.80;;;;;;5072347;28;20486;-74
2021/04/28 08:42:40;;;;;;;22.10;19.75;;;14.40;85.00;;;;;;5067505;28;20048;-74
2021/04/28 08:45:07;;;;;;;20.40;18.63;;;14.40;86.20;;;;;;5067626;28;20051;-73
2021/04/28 08:47:35;;;;;;;19.90;18.17;;;14.40;86.70;;;;;;5030610;28;20049;-74
2021/04/28 08:50:02;;;;;;;20.75;18.67;;;14.90;86.00;;;;;;5048324;28;20128;-74
2021/04/28 08:52:29;;;;;;;21.17;19.25;;;15.00;83.40;;;;;;5048013;28;20053;-73
2021/04/28 08:54:55;;;;;;;20.20;18.15;;;15.40;84.70;;;;;;5047389;28;20049;-73
2021/04/28 08:57:22;;;;;;;21.13;19.45;;;15.50;84.10;;;;;;5067016;28;20048;-74
2021/04/28 08:59:49;;;;;;;19.85;18.17;;;15.40;83.10;;;;;;5067289;28;20105;-73
2021/04/28 09:02:26;;;;;;;20.30;18.60;;;15.50;83.10;;;;;;5065424;28;20052;-74
2021/04/28 09:05:13;;;;;;;20.83;18.83;;;15.90;81.70;;;;;;5058949;28;20146;-73
2021/04/28 09:07:43;;;;;;;19.65;18.25;;;15.50;82.80;;;;;;5064770;28;20439;-74
2021/04/28 09:10:13;;;;;;;19.92;18.23;;;15.60;82.90;;;;;;5068397;28;20433;-74
2021/04/28 09:12:41;;;;;;;20.85;18.95;;;15.80;81.30;;;;;;5068766;28;20098;-73
2021/04/28 09:15:12;;;;;;;20.80;18.83;;;15.50;81.70;;;;;;5068520;28;20052;-73
2021/04/28 09:17:52;;;;;;;20.15;18.40;;;15.60;81.70;;;;;;5031769;28;20084;-73
2021/04/28 09:20:46;;;;;;;22.55;18.23;;;15.80;84.60;;;;;;5052378;28;20049;-73
2021/04/28 09:23:36;;;;;;;21.58;19.50;;;16.60;82.70;;;;;;5062346;28;20485;-73
2021/04/28 09:26:21;;;;;;;21.67;19.70;;;16.50;79.30;;;;;;5050802;28;20048;-73
2021/04/28 09:29:06;;;;;;;19.98;18.25;;;16.80;79.40;;;;;;5049772;28;20041;-73
2021/04/28 09:31:32;;;;;;;20.00;18.42;;;17.20;77.60;;;;;;5054930;28;20102;-73
2021/04/28 09:33:59;;;;;;;19.05;17.52;;;17.30;76.80;;;;;;5048895;28;20044;-73
2021/04/28 09:36:35;;;;;;;20.65;18.90;;;17.80;75.60;;;;;;5066718;28;20056;-73
2021/04/28 09:39:17;;;;;;;20.50;18.80;;;17.60;74.60;;;;;;5074256;28;20052;-73
2021/04/28 09:41:45;;;;;;;20.73;18.95;;;17.80;76.10;;;;;;5050986;28;20147;-73
2021/04/28 09:44:23;;;;;;;20.35;18.83;;;18.30;73.80;;;;;;5067715;28;20186;-74
2021/04/28 09:47:01;;;;;;;21.05;19.08;;;18.50;74.80;;;;;;5066897;28;20110;-73
2021/04/28 09:49:56;;;;;;;21.08;18.92;;;18.10;75.40;;;;;;5067112;28;20143;-73
2021/04/28 09:52:33;;;;;;;21.98;19.73;;;18.20;74.40;;;;;;5049466;28;20159;-73
2021/04/28 09:55:11;;;;;;;20.73;19.00;;;18.40;72.40;;;;;;5067093;28;20056;-73
2021/04/28 09:57:42;;;;;;;21.65;19.90;;;18.60;71.80;;;;;;5067904;28;20101;-73
2021/04/28 10:00:14;;;;;;;20.25;18.75;;;18.20;72.90;;;;;;5051802;28;20049;-72
2021/04/28 10:02:41;;;;;;;21.00;19.38;;;18.10;72.60;;;;;;5065424;28;20056;-73
2021/04/28 10:05:17;;;;;;;21.25;19.42;;;17.80;74.20;;;;;;5066534;28;20462;-73
2021/04/28 10:07:50;;;;;;;22.95;20.60;;;17.70;73.90;;;;;;5066461;28;20055;-72
2021/04/28 10:10:18;;;;;;;23.42;19.85;;;17.80;72.80;;;;;;5083135;28;20080;-73
2021/04/28 10:12:45;;;;;;;22.08;20.27;;;18.20;73.10;;;;;;5087438;28;20055;-72
2021/04/28 10:15:11;;;;;;;22.38;20.45;;;18.00;70.00;;;;;;5084706;28;20052;-74
2021/04/28 10:17:39;;;;;;;21.25;19.27;;;17.70;71.50;;;;;;5067673;28;20059;-73
2021/04/28 10:20:08;;;;;;;19.70;18.10;;;17.80;73.30;;;;;;5065606;28;20059;-73
2021/04/28 10:22:34;;;;;;;20.83;19.08;;;17.80;67.90;;;;;;5065808;28;20285;-73
2021/04/28 10:25:05;;;;;;;21.02;19.42;;;17.70;66.20;;;;;;5066363;28;20538;-73
2021/04/28 10:27:32;;;;;;;20.38;18.48;;;17.50;66.50;;;;;;5065716;28;20412;-74
2021/04/28 10:29:59;;;;;;;20.35;18.60;;;17.50;67.20;;;;;;5045968;28;20063;-72
2021/04/28 10:32:27;;;;;;;20.83;19.02;;;17.60;69.50;;;;;;5060527;28;20597;-72
2021/04/28 10:35:01;;;;;;;21.20;19.60;;;17.20;67.90;;;;;;5066205;28;20052;-72
2021/04/28 10:37:31;;;;;;;20.70;18.85;;;17.00;70.20;;;;;;5066627;28;20063;-72
2021/04/28 10:39:58;;;;;;;21.92;19.92;;;17.20;67.50;;;;;;5072809;28;20095;-73
2021/04/28 10:42:34;;;;;;;20.38;18.55;;;17.60;70.10;;;;;;5066671;28;20141;-72
2021/04/28 10:45:03;;;;;;;20.45;18.38;;;17.30;67.60;;;;;;5065441;28;20500;-73
2021/04/28 10:47:39;;;;;;;20.52;18.92;;;17.40;67.40;;;;;;5052251;28;20103;-73
2021/04/28 10:50:19;;;;;;;21.08;19.17;;;17.50;68.00;;;;;;5046638;28;20053;-73
2021/04/28 10:53:00;;;;;;;20.30;18.77;;;17.60;67.30;;;;;;5029280;28;20048;-73
2021/04/28 10:55:44;;;;;;;21.25;19.23;;;17.60;69.60;;;;;;5046762;28;20220;-73
2021/04/28 10:58:29;;;;;;;22.25;20.25;;;16.80;70.20;;;;;;5044920;28;20139;-73
2021/04/28 11:01:04;;;;;;;20.65;18.50;;;17.10;69.70;;;;;;5049272;28;20057;-73
2021/04/28 11:03:40;;;;;;;19.33;17.67;;;17.40;68.70;;;;;;5066514;28;20424;-73
2021/04/28 11:06:28;;;;;;;21.98;20.00;;;17.20;70.40;;;;;;5066266;28;20135;-73
2021/04/28 11:09:02;;;;;;;22.33;20.30;;;17.20;71.20;;;;;;5058453;28;20562;-73
2021/04/28 11:14:18;;;;;;;26.00;21.52;;;16.90;72.80;;;;;;5065206;28;20045;-73
2021/04/28 11:17:27;;;;;;;20.77;19.08;;;16.50;73.10;;;;;;5064540;28;20059;-73
2021/04/28 11:19:55;;;;;;;19.42;17.60;;;17.40;73.00;;;;;;5043484;28;20422;-73
2021/04/28 11:22:28;;;;;;;19.77;18.05;;;18.30;69.40;;;;;;5050034;28;20071;-72
2021/04/28 11:25:03;;;;;;;21.45;19.40;;;17.80;69.40;;;;;;5079240;28;20113;-74
2021/04/28 11:27:52;;;;;;;20.75;18.73;;;18.10;71.30;;;;;;5069551;28;20428;-73
2021/04/28 11:30:19;;;;;;;20.65;18.85;;;18.40;67.20;;;;;;5058252;28;20502;-74
2021/04/28 11:33:12;;;;;;;20.30;18.50;;;18.00;65.70;;;;;;5068245;28;20135;-74
2021/04/28 11:36:03;;;;;;;20.00;18.30;;;18.40;70.40;;;;;;5069354;28;20133;-73
2021/04/28 11:38:32;;;;;;;20.08;18.17;;;18.20;65.70;;;;;;5062191;28;20090;-73
2021/04/28 11:41:03;;;;;;;19.48;17.77;;;18.00;67.90;;;;;;5065564;28;20051;-73
2021/04/28 11:43:37;;;;;;;19.35;17.65;;;17.90;67.60;;;;;;5036717;28;20057;-73
2021/04/28 11:46:09;;;;;;;19.38;17.58;;;18.10;70.10;;;;;;5028204;28;20536;-72
2021/04/28 11:48:37;;;;;;;20.27;18.52;;;18.20;65.70;;;;;;5045380;28;20390;-73
2021/04/28 11:51:13;;;;;;;19.73;18.02;;;18.30;66.20;;;;;;5045372;28;20140;-73
2021/04/28 11:53:50;;;;;;;20.13;18.50;;;18.50;67.40;;;;;;5050333;28;20135;-73
2021/04/28 11:56:38;;;;;;;19.05;17.55;;;18.20;68.00;;;;;;5049398;28;20144;-73
2021/04/28 11:59:06;;;;;;;20.48;18.33;;;18.20;68.60;;;;;;5032054;28;20077;-72
2021/04/28 12:01:35;;;;;;;21.02;18.83;;;18.40;66.40;;;;;;5066017;28;20416;-72
2021/04/28 12:04:07;;;;;;;19.60;17.90;;;18.60;68.70;;;;;;5069930;28;20080;-72
2021/04/28 12:06:37;;;;;;;19.67;17.80;;;18.50;68.90;;;;;;5069014;28;20110;-72
2021/04/28 12:09:26;;;;;;;22.17;20.00;;;18.40;70.20;;;;;;5081840;28;20058;-73
2021/04/28 12:12:16;;;;;;;20.23;18.17;;;18.80;66.90;;;;;;5078180;28;20071;-72
2021/04/28 12:14:48;;;;;;;21.73;19.63;;;19.20;67.90;;;;;;5051359;28;20040;-73
2021/04/28 12:17:17;;;;;;;20.58;18.65;;;19.00;67.20;;;;;;5047958;28;20513;-72
2021/04/28 12:19:46;;;;;;;23.75;21.40;;;18.50;68.90;;;;;;5031516;28;20724;-72
2021/04/28 12:22:14;;;;;;;22.80;20.75;;;18.80;68.50;;;;;;5049295;28;20067;-71
2021/04/28 12:24:46;;;;;;;20.50;18.55;;;18.80;66.60;;;;;;5056615;28;20048;-71
2021/04/28 12:27:17;;;;;;;23.63;21.10;;;18.80;68.10;;;;;;5066202;28;20053;-71
2021/04/28 12:29:53;;;;;;;20.98;19.00;;;18.60;67.70;;;;;;5069317;28;20576;-71
2021/04/28 12:32:24;;;;;;;21.08;18.88;;;17.90;68.90;;;;;;5062318;28;20076;-72
2021/04/28 12:35:20;;;;;;;21.13;19.33;;;18.10;71.20;;;;;;5066922;28;20063;-72
2021/04/28 12:38:10;;;;;;;21.30;19.50;;;18.60;70.00;;;;;;5066768;28;20070;-72
2021/04/28 12:40:38;;;;;;;21.67;19.67;;;19.00;68.80;;;;;;5088443;28;20134;-72
2021/04/28 12:43:07;;;;;;;21.55;19.52;;;19.30;69.00;;;;;;5077261;28;20106;-72
2021/04/28 12:45:43;;;;;;;20.80;19.10;;;19.40;67.30;;;;;;5067951;28;20143;-73
2021/04/28 12:48:12;;;;;;;21.58;19.48;;;19.00;68.80;;;;;;5067574;28;20067;-71
2021/04/28 12:50:40;;;;;;;20.92;19.10;;;19.00;69.60;;;;;;5057643;28;20053;-71
2021/04/28 12:53:09;;;;;;;22.45;19.63;;;19.20;67.80;;;;;;5047694;28;20057;-70
2021/04/28 12:55:40;;;;;;;21.52;19.58;;;19.20;66.20;;;;;;5047756;28;20391;-72